CheckWX is a tool to help pilots better visualize weather data.  It is not intended as a substitute for an official pre-flight weather briefing.

08:55:55 UTC

OOSH TAF
Sohar Airport
Sohar, Oman
TAF OOSH 220500Z 2206/2312 06010KT 8000 FEW030 BECMG 2216/2218 VRB02KT PROB30 TEMPO 2218/2309 BKN040 BECMG 2307/2309 01010KT

Feb-22@
06:00 UTC

Feb-22 @ 06:00 UTC

Feb-22@
16:00 UTC

Feb-22 @ 16:00 UTC

TAF OOSH 220500Z 2206/2312 06010KT 8000 FEW030
Wind
  • 060° at 10 KTS
Cloud Levels
  • Few at 3,000' AGL

Feb-22@
16:00 UTC

Feb-22 @ 16:00 UTC

Feb-23@
07:00 UTC

Feb-23 @ 07:00 UTC

BECMG 2216/2218 VRB02KT

Becoming

BecomingConditions expected by Fri, Feb 22, 2019 @ 18:00 UTC

Wind
  • Variable at 2 KTS
Cloud Levels
  • Few at 3,000' AGL

Feb-22@
18:00 UTC

Feb-22 @ 18:00 UTC

Feb-23@
09:00 UTC

Feb-23 @ 09:00 UTC

PROB30 TEMPO 2218/2309 BKN040

Temporary - 30% Likelihood

Temporary - 30% Likelihood during this time.

Cloud Levels
  • Broken at 4,000' AGL

Feb-23@
07:00 UTC

Feb-23 @ 07:00 UTC

Feb-23@
12:00 UTC

Feb-23 @ 12:00 UTC

BECMG 2307/2309 01010KT

Becoming

BecomingConditions expected by Sat, Feb 23, 2019 @ 09:00 UTC

Wind
  • 010° at 10 KTS
Cloud Levels
  • Few at 3,000' AGL